sensor_id;sensor_type;location;lat;lon;timestamp;temperature;humidity
4107;DHT22;21906;50.812;7.132;2023-07-08T00:02:10;22.80;46.90
4107;DHT22;21906;50.812;7.132;2023-07-08T00:04:36;22.80;47.00
4107;DHT22;21906;50.812;7.132;2023-07-08T00:07:02;22.70;47.20
4107;DHT22;21906;50.812;7.132;2023-07-08T00:09:28;22.60;47.30
4107;DHT22;21906;50.812;7.132;2023-07-08T00:11:53;22.60;47.60
4107;DHT22;21906;50.812;7.132;2023-07-08T00:14:19;22.50;47.80
4107;DHT22;21906;50.812;7.132;2023-07-08T00:16:45;22.50;48.10
4107;DHT22;21906;50.812;7.132;2023-07-08T00:19:10;22.40;48.40
4107;DHT22;21906;50.812;7.132;2023-07-08T00:21:36;22.40;48.70
4107;DHT22;21906;50.812;7.132;2023-07-08T00:24:02;22.30;48.70
4107;DHT22;21906;50.812;7.132;2023-07-08T00:26:29;22.30;48.70
4107;DHT22;21906;50.812;7.132;2023-07-08T00:28:56;22.30;49.20
4107;DHT22;21906;50.812;7.132;2023-07-08T00:31:23;22.30;49.00
4107;DHT22;21906;50.812;7.132;2023-07-08T00:33:53;22.30;49.00
4107;DHT22;21906;50.812;7.132;2023-07-08T00:36:21;22.30;49.00
4107;DHT22;21906;50.812;7.132;2023-07-08T00:38:48;22.30;49.50
4107;DHT22;21906;50.812;7.132;2023-07-08T00:43:56;22.30;49.30
4107;DHT22;21906;50.812;7.132;2023-07-08T00:51:25;22.20;49.50
4107;DHT22;21906;50.812;7.132;2023-07-08T00:53:51;22.20;49.60
4107;DHT22;21906;50.812;7.132;2023-07-08T00:56:25;22.10;49.90
4107;DHT22;21906;50.812;7.132;2023-07-08T00:58:58;22.10;50.10
4107;DHT22;21906;50.812;7.132;2023-07-08T01:01:26;22.00;50.00
4107;DHT22;21906;50.812;7.132;2023-07-08T01:04:06;22.10;50.20
4107;DHT22;21906;50.812;7.132;2023-07-08T01:06:34;22.10;50.00
4107;DHT22;21906;50.812;7.132;2023-07-08T01:09:07;22.00;49.50
4107;DHT22;21906;50.812;7.132;2023-07-08T01:11:36;22.00;49.70
4107;DHT22;21906;50.812;7.132;2023-07-08T01:14:04;21.90;49.80
4107;DHT22;21906;50.812;7.132;2023-07-08T01:16:31;21.90;49.60
4107;DHT22;21906;50.812;7.132;2023-07-08T01:19:00;21.90;49.50
4107;DHT22;21906;50.812;7.132;2023-07-08T01:21:39;21.90;49.50
4107;DHT22;21906;50.812;7.132;2023-07-08T01:24:07;21.90;49.40
4107;DHT22;21906;50.812;7.132;2023-07-08T01:26:41;21.90;49.80
4107;DHT22;21906;50.812;7.132;2023-07-08T01:29:10;21.90;49.80
4107;DHT22;21906;50.812;7.132;2023-07-08T01:31:36;21.90;49.40
4107;DHT22;21906;50.812;7.132;2023-07-08T01:34:02;21.90;49.50
4107;DHT22;21906;50.812;7.132;2023-07-08T01:36:39;21.90;49.50
4107;DHT22;21906;50.812;7.132;2023-07-08T01:39:14;21.90;50.00
4107;DHT22;21906;50.812;7.132;2023-07-08T01:41:42;21.80;50.20
4107;DHT22;21906;50.812;7.132;2023-07-08T01:44:31;21.70;51.00
4107;DHT22;21906;50.812;7.132;2023-07-08T01:47:05;21.70;51.10
4107;DHT22;21906;50.812;7.132;2023-07-08T01:49:33;21.60;51.30
4107;DHT22;21906;50.812;7.132;2023-07-08T01:52:01;21.60;51.20
4107;DHT22;21906;50.812;7.132;2023-07-08T01:54:27;21.50;51.90
4107;DHT22;21906;50.812;7.132;2023-07-08T01:56:56;21.50;52.00
4107;DHT22;21906;50.812;7.132;2023-07-08T01:59:22;21.40;52.30
4107;DHT22;21906;50.812;7.132;2023-07-08T02:01:48;21.40;52.10
4107;DHT22;21906;50.812;7.132;2023-07-08T02:04:19;21.40;52.50
4107;DHT22;21906;50.812;7.132;2023-07-08T02:06:54;21.30;52.60
4107;DHT22;21906;50.812;7.132;2023-07-08T02:09:20;21.20;52.80
4107;DHT22;21906;50.812;7.132;2023-07-08T02:11:45;21.10;53.00
4107;DHT22;21906;50.812;7.132;2023-07-08T02:14:11;21.00;53.20
4107;DHT22;21906;50.812;7.132;2023-07-08T02:16:36;21.00;53.40
4107;DHT22;21906;50.812;7.132;2023-07-08T02:19:02;21.00;53.40
4107;DHT22;21906;50.812;7.132;2023-07-08T02:21:28;20.90;53.70
4107;DHT22;21906;50.812;7.132;2023-07-08T02:23:56;20.90;53.60
4107;DHT22;21906;50.812;7.132;2023-07-08T02:26:23;20.90;53.70
4107;DHT22;21906;50.812;7.132;2023-07-08T02:28:48;20.80;54.00
4107;DHT22;21906;50.812;7.132;2023-07-08T02:31:14;20.70;53.90
4107;DHT22;21906;50.812;7.132;2023-07-08T02:33:40;20.70;54.10
4107;DHT22;21906;50.812;7.132;2023-07-08T02:36:06;20.60;54.10
4107;DHT22;21906;50.812;7.132;2023-07-08T02:38:31;20.60;54.50
4107;DHT22;21906;50.812;7.132;2023-07-08T02:40:57;20.50;54.80
4107;DHT22;21906;50.812;7.132;2023-07-08T02:43:23;20.50;54.70
4107;DHT22;21906;50.812;7.132;2023-07-08T02:45:52;20.50;54.60
4107;DHT22;21906;50.812;7.132;2023-07-08T02:48:19;20.50;54.50
4107;DHT22;21906;50.812;7.132;2023-07-08T02:50:45;20.50;54.40
4107;DHT22;21906;50.812;7.132;2023-07-08T02:53:10;20.50;54.30
4107;DHT22;21906;50.812;7.132;2023-07-08T02:55:36;20.50;54.10
4107;DHT22;21906;50.812;7.132;2023-07-08T02:58:01;20.50;54.10
4107;DHT22;21906;50.812;7.132;2023-07-08T03:00:27;20.50;54.60
4107;DHT22;21906;50.812;7.132;2023-07-08T03:02:53;20.50;54.60
4107;DHT22;21906;50.812;7.132;2023-07-08T03:05:19;20.50;54.80
4107;DHT22;21906;50.812;7.132;2023-07-08T03:07:44;20.40;54.80
4107;DHT22;21906;50.812;7.132;2023-07-08T03:10:10;20.40;54.90
4107;DHT22;21906;50.812;7.132;2023-07-08T03:12:35;20.40;54.80
4107;DHT22;21906;50.812;7.132;2023-07-08T03:15:01;20.40;54.90
4107;DHT22;21906;50.812;7.132;2023-07-08T03:17:27;20.40;55.30
4107;DHT22;21906;50.812;7.132;2023-07-08T03:19:52;20.40;55.00
4107;DHT22;21906;50.812;7.132;2023-07-08T03:22:18;20.40;54.90
4107;DHT22;21906;50.812;7.132;2023-07-08T03:24:44;20.40;54.70
4107;DHT22;21906;50.812;7.132;2023-07-08T03:27:13;20.40;54.60
4107;DHT22;21906;50.812;7.132;2023-07-08T03:29:39;20.40;54.60
4107;DHT22;21906;50.812;7.132;2023-07-08T03:32:07;20.40;54.50
4107;DHT22;21906;50.812;7.132;2023-07-08T03:34:34;20.40;54.50
4107;DHT22;21906;50.812;7.132;2023-07-08T03:36:59;20.40;54.40
4107;DHT22;21906;50.812;7.132;2023-07-08T03:39:25;20.40;54.40
4107;DHT22;21906;50.812;7.132;2023-07-08T03:41:51;20.50;54.10
4107;DHT22;21906;50.812;7.132;2023-07-08T03:44:18;20.50;54.00
4107;DHT22;21906;50.812;7.132;2023-07-08T03:46:45;20.50;54.00
4107;DHT22;21906;50.812;7.132;2023-07-08T03:49:11;20.50;54.00
4107;DHT22;21906;50.812;7.132;2023-07-08T03:51:39;20.50;54.10
4107;DHT22;21906;50.812;7.132;2023-07-08T03:54:06;20.50;53.90
4107;DHT22;21906;50.812;7.132;2023-07-08T03:56:34;20.50;54.10
4107;DHT22;21906;50.812;7.132;2023-07-08T03:59:00;20.50;53.70
4107;DHT22;21906;50.812;7.132;2023-07-08T04:01:26;20.40;54.10
4107;DHT22;21906;50.812;7.132;2023-07-08T04:03:54;20.50;54.30
4107;DHT22;21906;50.812;7.132;2023-07-08T04:06:20;20.40;54.30
4107;DHT22;21906;50.812;7.132;2023-07-08T04:08:46;20.40;53.90
4107;DHT22;21906;50.812;7.132;2023-07-08T04:11:20;20.40;53.70
4107;DHT22;21906;50.812;7.132;2023-07-08T04:13:46;20.50;54.00
4107;DHT22;21906;50.812;7.132;2023-07-08T04:16:44;20.50;54.50
4107;DHT22;21906;50.812;7.132;2023-07-08T04:19:12;20.50;54.70
4107;DHT22;21906;50.812;7.132;2023-07-08T04:21:40;20.50;54.90
4107;DHT22;21906;50.812;7.132;2023-07-08T04:24:09;20.60;54.60
4107;DHT22;21906;50.812;7.132;2023-07-08T04:26:34;20.50;54.90
4107;DHT22;21906;50.812;7.132;2023-07-08T04:29:01;20.50;54.80
4107;DHT22;21906;50.812;7.132;2023-07-08T04:31:27;20.40;54.90
4107;DHT22;21906;50.812;7.132;2023-07-08T04:33:52;20.50;54.30
4107;DHT22;21906;50.812;7.132;2023-07-08T04:36:18;20.50;54.20
4107;DHT22;21906;50.812;7.132;2023-07-08T04:38:47;20.40;54.30
4107;DHT22;21906;50.812;7.132;2023-07-08T04:41:13;20.50;54.50
4107;DHT22;21906;50.812;7.132;2023-07-08T04:43:38;20.40;54.60
4107;DHT22;21906;50.812;7.132;2023-07-08T04:46:08;20.40;54.50
4107;DHT22;21906;50.812;7.132;2023-07-08T04:48:41;20.40;54.60
4107;DHT22;21906;50.812;7.132;2023-07-08T04:51:08;20.50;55.00
4107;DHT22;21906;50.812;7.132;2023-07-08T04:53:33;20.50;55.00
4107;DHT22;21906;50.812;7.132;2023-07-08T04:55:59;20.50;54.60
4107;DHT22;21906;50.812;7.132;2023-07-08T04:58:25;20.50;54.50
4107;DHT22;21906;50.812;7.132;2023-07-08T05:00:50;20.50;54.30
4107;DHT22;21906;50.812;7.132;2023-07-08T05:03:16;20.70;53.90
4107;DHT22;21906;50.812;7.132;2023-07-08T05:05:42;20.70;53.80
4107;DHT22;21906;50.812;7.132;2023-07-08T05:08:08;20.60;53.50
4107;DHT22;21906;50.812;7.132;2023-07-08T05:10:34;20.70;53.10
4107;DHT22;21906;50.812;7.132;2023-07-08T05:13:00;20.80;53.00
4107;DHT22;21906;50.812;7.132;2023-07-08T05:15:26;20.80;53.30
4107;DHT22;21906;50.812;7.132;2023-07-08T05:17:51;20.80;53.20
4107;DHT22;21906;50.812;7.132;2023-07-08T05:20:17;20.90;53.30
4107;DHT22;21906;50.812;7.132;2023-07-08T05:22:44;20.90;53.80
4107;DHT22;21906;50.812;7.132;2023-07-08T05:25:12;20.90;53.30
4107;DHT22;21906;50.812;7.132;2023-07-08T05:27:37;20.90;52.90
4107;DHT22;21906;50.812;7.132;2023-07-08T05:30:05;21.00;52.40
4107;DHT22;21906;50.812;7.132;2023-07-08T05:32:31;21.10;52.20
4107;DHT22;21906;50.812;7.132;2023-07-08T05:34:56;21.20;51.60
4107;DHT22;21906;50.812;7.132;2023-07-08T05:37:22;21.40;51.20
4107;DHT22;21906;50.812;7.132;2023-07-08T05:39:52;21.50;50.30
4107;DHT22;21906;50.812;7.132;2023-07-08T05:42:19;21.60;50.40
4107;DHT22;21906;50.812;7.132;2023-07-08T05:44:45;21.70;49.70
4107;DHT22;21906;50.812;7.132;2023-07-08T05:47:11;21.90;49.80
4107;DHT22;21906;50.812;7.132;2023-07-08T05:49:36;21.90;49.40
4107;DHT22;21906;50.812;7.132;2023-07-08T05:52:02;22.10;48.70
4107;DHT22;21906;50.812;7.132;2023-07-08T05:54:33;22.10;47.60
4107;DHT22;21906;50.812;7.132;2023-07-08T05:56:59;22.20;48.40
4107;DHT22;21906;50.812;7.132;2023-07-08T05:59:25;22.20;48.00
4107;DHT22;21906;50.812;7.132;2023-07-08T06:01:50;22.30;48.10
4107;DHT22;21906;50.812;7.132;2023-07-08T06:04:16;22.30;47.80
4107;DHT22;21906;50.812;7.132;2023-07-08T06:06:41;22.30;47.20
4107;DHT22;21906;50.812;7.132;2023-07-08T06:09:07;22.40;47.90
4107;DHT22;21906;50.812;7.132;2023-07-08T06:11:32;22.40;48.20
4107;DHT22;21906;50.812;7.132;2023-07-08T06:13:58;22.50;47.30
4107;DHT22;21906;50.812;7.132;2023-07-08T06:16:24;22.60;47.10
4107;DHT22;21906;50.812;7.132;2023-07-08T06:18:49;22.60;47.20
4107;DHT22;21906;50.812;7.132;2023-07-08T06:21:15;22.70;47.00
4107;DHT22;21906;50.812;7.132;2023-07-08T06:23:41;22.70;46.80
4107;DHT22;21906;50.812;7.132;2023-07-08T06:26:06;22.80;47.20
4107;DHT22;21906;50.812;7.132;2023-07-08T06:28:32;22.80;46.90
4107;DHT22;21906;50.812;7.132;2023-07-08T06:30:58;22.90;46.80
4107;DHT22;21906;50.812;7.132;2023-07-08T06:33:23;22.90;46.70
4107;DHT22;21906;50.812;7.132;2023-07-08T06:35:49;23.00;47.30
4107;DHT22;21906;50.812;7.132;2023-07-08T06:38:14;23.10;46.90
4107;DHT22;21906;50.812;7.132;2023-07-08T06:40:40;23.20;47.40
4107;DHT22;21906;50.812;7.132;2023-07-08T06:43:06;23.20;48.30
4107;DHT22;21906;50.812;7.132;2023-07-08T06:45:32;23.30;47.10
4107;DHT22;21906;50.812;7.132;2023-07-08T06:47:57;23.30;46.20
4107;DHT22;21906;50.812;7.132;2023-07-08T06:50:23;23.30;46.10
4107;DHT22;21906;50.812;7.132;2023-07-08T06:52:49;23.40;46.30
4107;DHT22;21906;50.812;7.132;2023-07-08T06:55:14;23.40;46.10
4107;DHT22;21906;50.812;7.132;2023-07-08T06:57:40;23.50;45.50
4107;DHT22;21906;50.812;7.132;2023-07-08T07:00:11;23.70;46.30
4107;DHT22;21906;50.812;7.132;2023-07-08T07:02:38;23.70;46.50
4107;DHT22;21906;50.812;7.132;2023-07-08T07:05:05;23.90;47.10
4107;DHT22;21906;50.812;7.132;2023-07-08T07:07:31;23.90;45.80
4107;DHT22;21906;50.812;7.132;2023-07-08T07:09:57;24.00;46.00
4107;DHT22;21906;50.812;7.132;2023-07-08T07:12:24;24.10;46.40
4107;DHT22;21906;50.812;7.132;2023-07-08T07:14:50;24.20;46.40
4107;DHT22;21906;50.812;7.132;2023-07-08T07:17:21;24.20;46.20
4107;DHT22;21906;50.812;7.132;2023-07-08T07:19:47;24.30;46.40
4107;DHT22;21906;50.812;7.132;2023-07-08T07:22:13;24.30;47.40
4107;DHT22;21906;50.812;7.132;2023-07-08T07:24:39;24.30;46.60
4107;DHT22;21906;50.812;7.132;2023-07-08T07:27:05;24.40;46.10
4107;DHT22;21906;50.812;7.132;2023-07-08T07:29:46;24.40;46.00
4107;DHT22;21906;50.812;7.132;2023-07-08T07:32:12;24.40;46.60
4107;DHT22;21906;50.812;7.132;2023-07-08T07:34:39;24.50;47.00
4107;DHT22;21906;50.812;7.132;2023-07-08T07:37:06;24.60;47.10
4107;DHT22;21906;50.812;7.132;2023-07-08T07:39:32;24.60;46.90
4107;DHT22;21906;50.812;7.132;2023-07-08T07:41:58;24.70;46.50
4107;DHT22;21906;50.812;7.132;2023-07-08T07:44:23;24.80;46.30
4107;DHT22;21906;50.812;7.132;2023-07-08T07:46:52;24.80;46.30
4107;DHT22;21906;50.812;7.132;2023-07-08T07:49:18;25.00;44.00
4107;DHT22;21906;50.812;7.132;2023-07-08T07:51:44;25.10;43.20
4107;DHT22;21906;50.812;7.132;2023-07-08T07:54:10;25.10;43.10
4107;DHT22;21906;50.812;7.132;2023-07-08T07:56:35;25.30;42.50
4107;DHT22;21906;50.812;7.132;2023-07-08T07:59:02;25.30;43.00
4107;DHT22;21906;50.812;7.132;2023-07-08T08:01:29;25.30;43.30
4107;DHT22;21906;50.812;7.132;2023-07-08T08:03:55;25.40;44.30
4107;DHT22;21906;50.812;7.132;2023-07-08T08:06:21;25.50;43.30
4107;DHT22;21906;50.812;7.132;2023-07-08T08:08:48;25.70;42.70
4107;DHT22;21906;50.812;7.132;2023-07-08T08:11:15;25.70;42.50
4107;DHT22;21906;50.812;7.132;2023-07-08T08:13:41;25.70;43.10
4107;DHT22;21906;50.812;7.132;2023-07-08T08:16:07;25.80;42.00
4107;DHT22;21906;50.812;7.132;2023-07-08T08:18:33;25.90;41.30
4107;DHT22;21906;50.812;7.132;2023-07-08T08:20:59;25.90;41.80
4107;DHT22;21906;50.812;7.132;2023-07-08T08:23:25;26.00;42.00
4107;DHT22;21906;50.812;7.132;2023-07-08T08:25:51;26.10;41.10
4107;DHT22;21906;50.812;7.132;2023-07-08T08:28:17;26.20;41.10
4107;DHT22;21906;50.812;7.132;2023-07-08T08:30:47;26.20;40.80
4107;DHT22;21906;50.812;7.132;2023-07-08T08:33:13;26.30;40.90
4107;DHT22;21906;50.812;7.132;2023-07-08T08:35:39;26.40;41.30
4107;DHT22;21906;50.812;7.132;2023-07-08T08:38:05;26.40;41.30
4107;DHT22;21906;50.812;7.132;2023-07-08T08:40:31;26.50;40.40
4107;DHT22;21906;50.812;7.132;2023-07-08T08:42:59;26.50;40.40
4107;DHT22;21906;50.812;7.132;2023-07-08T08:45:27;26.60;40.50
4107;DHT22;21906;50.812;7.132;2023-07-08T08:48:02;26.60;40.30
4107;DHT22;21906;50.812;7.132;2023-07-08T08:53:18;26.90;40.80
4107;DHT22;21906;50.812;7.132;2023-07-08T08:55:50;26.80;41.00
4107;DHT22;21906;50.812;7.132;2023-07-08T08:58:28;26.90;41.10
4107;DHT22;21906;50.812;7.132;2023-07-08T09:01:02;26.90;41.50
4107;DHT22;21906;50.812;7.132;2023-07-08T09:03:57;26.90;40.50
4107;DHT22;21906;50.812;7.132;2023-07-08T09:06:31;27.00;41.30
4107;DHT22;21906;50.812;7.132;2023-07-08T09:09:10;27.00;40.70
4107;DHT22;21906;50.812;7.132;2023-07-08T09:14:24;27.20;43.00
4107;DHT22;21906;50.812;7.132;2023-07-08T09:20:06;27.40;40.60
4107;DHT22;21906;50.812;7.132;2023-07-08T09:23:07;27.40;40.30
4107;DHT22;21906;50.812;7.132;2023-07-08T09:25:35;27.40;40.10
4107;DHT22;21906;50.812;7.132;2023-07-08T09:28:02;27.60;40.40
4107;DHT22;21906;50.812;7.132;2023-07-08T09:30:28;27.70;39.20
4107;DHT22;21906;50.812;7.132;2023-07-08T09:32:56;27.80;39.80
4107;DHT22;21906;50.812;7.132;2023-07-08T09:35:28;27.90;40.20
4107;DHT22;21906;50.812;7.132;2023-07-08T09:37:55;27.90;39.70
4107;DHT22;21906;50.812;7.132;2023-07-08T09:40:22;28.00;37.60
4107;DHT22;21906;50.812;7.132;2023-07-08T09:42:53;28.20;39.10
4107;DHT22;21906;50.812;7.132;2023-07-08T09:45:23;28.30;38.00
4107;DHT22;21906;50.812;7.132;2023-07-08T09:47:56;28.40;36.40
4107;DHT22;21906;50.812;7.132;2023-07-08T09:50:27;28.40;36.80
4107;DHT22;21906;50.812;7.132;2023-07-08T09:52:56;28.50;36.20
4107;DHT22;21906;50.812;7.132;2023-07-08T09:55:30;28.60;36.10
4107;DHT22;21906;50.812;7.132;2023-07-08T09:57:58;28.60;36.50
4107;DHT22;21906;50.812;7.132;2023-07-08T10:00:34;28.60;35.70
4107;DHT22;21906;50.812;7.132;2023-07-08T10:03:15;28.70;36.50
4107;DHT22;21906;50.812;7.132;2023-07-08T10:05:45;28.70;36.20
4107;DHT22;21906;50.812;7.132;2023-07-08T10:08:20;28.80;35.90
4107;DHT22;21906;50.812;7.132;2023-07-08T10:11:50;28.90;36.60
4107;DHT22;21906;50.812;7.132;2023-07-08T10:14:05;28.90;36.90
4107;DHT22;21906;50.812;7.132;2023-07-08T10:16:33;28.90;36.00
4107;DHT22;21906;50.812;7.132;2023-07-08T10:19:00;29.10;36.60
4107;DHT22;21906;50.812;7.132;2023-07-08T10:21:42;29.00;37.20
4107;DHT22;21906;50.812;7.132;2023-07-08T10:24:23;29.10;35.90
4107;DHT22;21906;50.812;7.132;2023-07-08T10:29:52;29.30;36.50
4107;DHT22;21906;50.812;7.132;2023-07-08T10:32:24;29.40;35.10
4107;DHT22;21906;50.812;7.132;2023-07-08T10:35:03;29.50;35.10
4107;DHT22;21906;50.812;7.132;2023-07-08T10:38:06;29.60;34.90
4107;DHT22;21906;50.812;7.132;2023-07-08T10:41:04;29.70;34.60
4107;DHT22;21906;50.812;7.132;2023-07-08T10:49:14;29.80;35.30
4107;DHT22;21906;50.812;7.132;2023-07-08T10:51:48;29.90;35.80
4107;DHT22;21906;50.812;7.132;2023-07-08T10:54:33;29.90;34.00
4107;DHT22;21906;50.812;7.132;2023-07-08T11:00:27;30.20;34.10
4107;DHT22;21906;50.812;7.132;2023-07-08T11:10:51;30.40;35.80
4107;DHT22;21906;50.812;7.132;2023-07-08T11:13:20;30.40;36.10
4107;DHT22;21906;50.812;7.132;2023-07-08T11:16:07;30.40;36.60
4107;DHT22;21906;50.812;7.132;2023-07-08T11:21:39;30.60;36.80
4107;DHT22;21906;50.812;7.132;2023-07-08T11:24:34;30.80;34.30
4107;DHT22;21906;50.812;7.132;2023-07-08T11:27:26;30.70;35.90
4107;DHT22;21906;50.812;7.132;2023-07-08T11:32:27;30.90;35.50
4107;DHT22;21906;50.812;7.132;2023-07-08T11:34:55;30.90;35.10
4107;DHT22;21906;50.812;7.132;2023-07-08T11:37:22;31.10;34.70
4107;DHT22;21906;50.812;7.132;2023-07-08T11:40:05;31.20;35.50
4107;DHT22;21906;50.812;7.132;2023-07-08T11:42:44;31.30;34.60
4107;DHT22;21906;50.812;7.132;2023-07-08T11:47:47;31.20;36.40
4107;DHT22;21906;50.812;7.132;2023-07-08T11:50:25;31.30;34.80
4107;DHT22;21906;50.812;7.132;2023-07-08T11:53:07;31.30;36.10
4107;DHT22;21906;50.812;7.132;2023-07-08T11:55:55;31.40;33.80
4107;DHT22;21906;50.812;7.132;2023-07-08T12:05:59;31.60;33.90
4107;DHT22;21906;50.812;7.132;2023-07-08T12:08:34;31.70;34.90
4107;DHT22;21906;50.812;7.132;2023-07-08T12:11:03;31.70;34.50
4107;DHT22;21906;50.812;7.132;2023-07-08T12:13:35;31.80;34.20
4107;DHT22;21906;50.812;7.132;2023-07-08T12:16:01;31.90;33.50
4107;DHT22;21906;50.812;7.132;2023-07-08T12:18:35;31.90;34.50
4107;DHT22;21906;50.812;7.132;2023-07-08T12:21:02;32.00;36.00
4107;DHT22;21906;50.812;7.132;2023-07-08T12:23:28;32.10;34.40
4107;DHT22;21906;50.812;7.132;2023-07-08T12:25:56;32.20;34.50
4107;DHT22;21906;50.812;7.132;2023-07-08T12:28:24;32.20;34.10
4107;DHT22;21906;50.812;7.132;2023-07-08T12:30:51;32.30;35.30
4107;DHT22;21906;50.812;7.132;2023-07-08T12:33:32;32.40;34.30
4107;DHT22;21906;50.812;7.132;2023-07-08T12:36:00;32.40;33.00
4107;DHT22;21906;50.812;7.132;2023-07-08T12:38:39;32.50;32.20
4107;DHT22;21906;50.812;7.132;2023-07-08T12:41:17;32.60;31.70
4107;DHT22;21906;50.812;7.132;2023-07-08T12:43:44;32.50;32.30
4107;DHT22;21906;50.812;7.132;2023-07-08T12:46:11;32.40;32.60
4107;DHT22;21906;50.812;7.132;2023-07-08T12:48:38;32.40;33.00
4107;DHT22;21906;50.812;7.132;2023-07-08T12:51:06;32.40;32.60
4107;DHT22;21906;50.812;7.132;2023-07-08T12:53:35;32.50;32.60
4107;DHT22;21906;50.812;7.132;2023-07-08T12:56:02;32.60;32.80
4107;DHT22;21906;50.812;7.132;2023-07-08T12:58:31;32.70;33.30
4107;DHT22;21906;50.812;7.132;2023-07-08T13:01:01;32.80;31.70
4107;DHT22;21906;50.812;7.132;2023-07-08T13:03:30;32.80;33.60
4107;DHT22;21906;50.812;7.132;2023-07-08T13:05:57;32.80;31.90
4107;DHT22;21906;50.812;7.132;2023-07-08T13:08:27;32.90;31.70
4107;DHT22;21906;50.812;7.132;2023-07-08T13:10:58;32.90;31.60
4107;DHT22;21906;50.812;7.132;2023-07-08T13:13:31;33.00;31.80
4107;DHT22;21906;50.812;7.132;2023-07-08T13:15:58;33.10;32.30
4107;DHT22;21906;50.812;7.132;2023-07-08T13:20:56;33.40;31.50
4107;DHT22;21906;50.812;7.132;2023-07-08T13:23:22;33.40;32.50
4107;DHT22;21906;50.812;7.132;2023-07-08T13:25:52;33.60;33.50
4107;DHT22;21906;50.812;7.132;2023-07-08T13:28:30;33.70;33.30
4107;DHT22;21906;50.812;7.132;2023-07-08T13:31:11;33.70;31.60
4107;DHT22;21906;50.812;7.132;2023-07-08T13:33:45;33.70;32.10
4107;DHT22;21906;50.812;7.132;2023-07-08T13:36:12;33.80;32.80
4107;DHT22;21906;50.812;7.132;2023-07-08T13:38:39;33.90;31.50
4107;DHT22;21906;50.812;7.132;2023-07-08T13:41:07;33.90;31.40
4107;DHT22;21906;50.812;7.132;2023-07-08T13:43:39;34.00;30.80
4107;DHT22;21906;50.812;7.132;2023-07-08T13:46:28;34.10;32.00
4107;DHT22;21906;50.812;7.132;2023-07-08T13:48:54;34.10;31.00
4107;DHT22;21906;50.812;7.132;2023-07-08T13:51:22;34.10;31.70
4107;DHT22;21906;50.812;7.132;2023-07-08T13:53:53;34.10;31.80
4107;DHT22;21906;50.812;7.132;2023-07-08T13:56:33;34.30;32.50
4107;DHT22;21906;50.812;7.132;2023-07-08T13:59:08;34.40;32.80
4107;DHT22;21906;50.812;7.132;2023-07-08T14:01:40;34.40;31.80
4107;DHT22;21906;50.812;7.132;2023-07-08T14:04:06;34.60;31.70
4107;DHT22;21906;50.812;7.132;2023-07-08T14:06:35;34.80;31.00
4107;DHT22;21906;50.812;7.132;2023-07-08T14:09:22;34.70;30.80
4107;DHT22;21906;50.812;7.132;2023-07-08T14:11:49;34.80;31.30
4107;DHT22;21906;50.812;7.132;2023-07-08T14:14:16;34.80;29.70
4107;DHT22;21906;50.812;7.132;2023-07-08T14:16:51;34.80;30.60
4107;DHT22;21906;50.812;7.132;2023-07-08T14:19:22;34.60;30.50
4107;DHT22;21906;50.812;7.132;2023-07-08T14:21:53;34.40;30.30
4107;DHT22;21906;50.812;7.132;2023-07-08T14:24:19;34.30;30.90
4107;DHT22;21906;50.812;7.132;2023-07-08T14:26:45;34.30;31.30
4107;DHT22;21906;50.812;7.132;2023-07-08T14:29:11;34.40;31.80
4107;DHT22;21906;50.812;7.132;2023-07-08T14:31:38;34.70;31.50
4107;DHT22;21906;50.812;7.132;2023-07-08T14:34:11;34.90;31.10
4107;DHT22;21906;50.812;7.132;2023-07-08T14:36:37;35.10;30.10
4107;DHT22;21906;50.812;7.132;2023-07-08T14:39:14;35.40;30.20
4107;DHT22;21906;50.812;7.132;2023-07-08T14:41:41;35.80;30.80
4107;DHT22;21906;50.812;7.132;2023-07-08T14:44:33;36.20;30.20
4107;DHT22;21906;50.812;7.132;2023-07-08T14:46:59;36.70;29.60
4107;DHT22;21906;50.812;7.132;2023-07-08T14:49:28;37.00;28.20
4107;DHT22;21906;50.812;7.132;2023-07-08T14:51:54;37.40;28.00
4107;DHT22;21906;50.812;7.132;2023-07-08T14:54:21;37.80;28.00
4107;DHT22;21906;50.812;7.132;2023-07-08T14:56:47;37.90;27.60
4107;DHT22;21906;50.812;7.132;2023-07-08T14:59:19;38.30;27.70
4107;DHT22;21906;50.812;7.132;2023-07-08T15:01:46;38.60;26.90
4107;DHT22;21906;50.812;7.132;2023-07-08T15:04:14;38.80;26.50
4107;DHT22;21906;50.812;7.132;2023-07-08T15:06:41;38.90;26.50
4107;DHT22;21906;50.812;7.132;2023-07-08T15:09:07;38.60;26.20
4107;DHT22;21906;50.812;7.132;2023-07-08T15:11:34;38.00;27.10
4107;DHT22;21906;50.812;7.132;2023-07-08T15:14:01;37.40;27.80
4107;DHT22;21906;50.812;7.132;2023-07-08T15:16:27;37.00;28.00
4107;DHT22;21906;50.812;7.132;2023-07-08T15:18:53;36.50;28.70
4107;DHT22;21906;50.812;7.132;2023-07-08T15:21:19;36.20;29.10
4107;DHT22;21906;50.812;7.132;2023-07-08T15:23:44;35.70;29.90
4107;DHT22;21906;50.812;7.132;2023-07-08T15:26:11;35.30;30.40
4107;DHT22;21906;50.812;7.132;2023-07-08T15:28:46;34.90;31.30
4107;DHT22;21906;50.812;7.132;2023-07-08T15:31:33;34.80;31.50
4107;DHT22;21906;50.812;7.132;2023-07-08T15:34:00;35.00;30.90
4107;DHT22;21906;50.812;7.132;2023-07-08T15:36:26;35.90;30.60
4107;DHT22;21906;50.812;7.132;2023-07-08T15:38:51;36.90;29.00
4107;DHT22;21906;50.812;7.132;2023-07-08T15:41:24;37.40;28.90
4107;DHT22;21906;50.812;7.132;2023-07-08T15:43:55;37.60;29.00
4107;DHT22;21906;50.812;7.132;2023-07-08T15:46:21;37.80;27.80
4107;DHT22;21906;50.812;7.132;2023-07-08T15:48:47;38.50;27.50
4107;DHT22;21906;50.812;7.132;2023-07-08T15:51:16;38.60;27.00
4107;DHT22;21906;50.812;7.132;2023-07-08T15:53:44;39.40;26.90
4107;DHT22;21906;50.812;7.132;2023-07-08T15:56:15;39.90;26.60
4107;DHT22;21906;50.812;7.132;2023-07-08T15:58:43;39.90;26.00
4107;DHT22;21906;50.812;7.132;2023-07-08T16:01:17;40.00;25.90
4107;DHT22;21906;50.812;7.132;2023-07-08T16:03:43;40.80;25.50
4107;DHT22;21906;50.812;7.132;2023-07-08T16:06:09;41.90;24.40
4107;DHT22;21906;50.812;7.132;2023-07-08T16:08:35;42.40;24.10
4107;DHT22;21906;50.812;7.132;2023-07-08T16:11:05;41.20;24.50
4107;DHT22;21906;50.812;7.132;2023-07-08T16:13:37;40.00;25.40
4107;DHT22;21906;50.812;7.132;2023-07-08T16:16:04;38.90;26.70
4107;DHT22;21906;50.812;7.132;2023-07-08T16:18:30;37.80;27.60
4107;DHT22;21906;50.812;7.132;2023-07-08T16:20:56;36.90;28.70
4107;DHT22;21906;50.812;7.132;2023-07-08T16:23:21;36.20;29.60
4107;DHT22;21906;50.812;7.132;2023-07-08T16:25:50;35.50;30.50
4107;DHT22;21906;50.812;7.132;2023-07-08T16:28:21;34.90;31.30
4107;DHT22;21906;50.812;7.132;2023-07-08T16:30:49;34.40;32.20
4107;DHT22;21906;50.812;7.132;2023-07-08T16:33:15;34.10;32.80
4107;DHT22;21906;50.812;7.132;2023-07-08T16:35:41;33.80;33.00
4107;DHT22;21906;50.812;7.132;2023-07-08T16:38:07;33.60;33.70
4107;DHT22;21906;50.812;7.132;2023-07-08T16:40:33;33.30;34.00
4107;DHT22;21906;50.812;7.132;2023-07-08T16:42:59;33.00;33.90
4107;DHT22;21906;50.812;7.132;2023-07-08T16:45:26;32.90;34.20
4107;DHT22;21906;50.812;7.132;2023-07-08T16:47:52;32.60;35.00
4107;DHT22;21906;50.812;7.132;2023-07-08T16:50:21;32.50;35.30
4107;DHT22;21906;50.812;7.132;2023-07-08T16:52:49;32.40;35.20